Time;durP1;ratioP1;P1;durP2;ratioP2;P2;SDS_P1;SDS_P2;PMS_P1;PMS_P2;Temp;Humidity;BMP_temperature;BMP_pressure;BME280_temperature;BME280_humidity;BME280_pressure;Samples;Min_cycle;Max_cycle;Signal;HPM_P1;HPM_P2
2023/06/12 00:01:40;;;;;;;1.40;1.30;;;25.20;54.10;;;;;;222520;1254;22535;-47
2023/06/12 00:06:45;;;;;;;1.50;1.40;;;25.10;54.60;;;;;;222775;1261;22505;-46
2023/06/12 00:11:49;;;;;;;2.20;1.50;;;25.00;54.30;;;;;;222908;1264;23905;-47
2023/06/12 00:16:53;;;;;;;2.70;1.30;;;25.00;54.30;;;;;;222689;1265;22510;-47
2023/06/12 00:21:58;;;;;;;1.50;1.40;;;25.00;54.00;;;;;;222295;1265;22511;-46
2023/06/12 00:27:03;;;;;;;1.80;1.70;;;25.00;54.60;;;;;;222238;1261;22519;-44
2023/06/12 00:32:07;;;;;;;1.70;1.60;;;25.00;54.50;;;;;;222411;1262;24309;-50
2023/06/12 00:37:12;;;;;;;1.60;1.40;;;25.00;54.50;;;;;;222658;1263;22595;-46
2023/06/12 00:42:17;;;;;;;1.50;1.40;;;25.00;54.00;;;;;;222720;1267;22507;-47
2023/06/12 00:47:22;;;;;;;2.00;1.60;;;25.00;53.70;;;;;;222600;1260;22551;-46
2023/06/12 00:52:29;;;;;;;1.60;1.40;;;25.10;54.60;;;;;;222539;1266;22616;-46
2023/06/12 00:57:36;;;;;;;1.80;1.60;;;25.00;54.70;;;;;;222538;1265;22563;-47
2023/06/12 01:02:43;;;;;;;2.10;2.00;;;25.00;54.50;;;;;;222387;1260;25934;-48
2023/06/12 01:08:35;;;;;;;1.50;1.40;;;25.10;54.20;;;;;;222598;1263;24208;-47
2023/06/12 01:13:40;;;;;;;1.50;1.40;;;25.10;54.30;;;;;;222530;1266;22521;-51
2023/06/12 01:18:44;;;;;;;1.70;1.50;;;25.10;54.20;;;;;;222637;1267;22911;-50
2023/06/12 01:24:01;;;;;;;1.90;1.60;;;25.10;54.50;;;;;;222804;1267;22624;-49
2023/06/12 01:29:15;;;;;;;2.00;1.70;;;25.00;54.70;;;;;;222654;1268;22535;-50
2023/06/12 01:34:27;;;;;;;1.50;1.40;;;25.00;54.90;;;;;;222427;1268;24051;-47
2023/06/12 01:39:40;;;;;;;2.60;1.40;;;25.00;54.60;;;;;;222679;1260;22636;-46
2023/06/12 01:44:44;;;;;;;1.50;1.40;;;25.00;54.60;;;;;;222640;1267;22523;-52
2023/06/12 01:49:49;;;;;;;1.60;1.50;;;25.00;54.60;;;;;;222851;1267;25324;-45
2023/06/12 01:54:58;;;;;;;1.80;1.70;;;25.00;54.60;;;;;;222752;1253;25299;-46
2023/06/12 02:00:05;;;;;;;1.40;1.30;;;25.00;54.70;;;;;;222452;1253;25383;-50
2023/06/12 02:05:22;;;;;;;1.90;1.30;;;25.00;54.80;;;;;;222801;1261;22504;-48
2023/06/12 02:10:27;;;;;;;1.70;1.60;;;24.90;54.70;;;;;;222623;1267;22657;-47
2023/06/12 02:15:31;;;;;;;1.50;1.40;;;25.00;54.80;;;;;;222654;1254;239285;-48
2023/06/12 02:20:36;;;;;;;1.70;1.20;;;25.00;54.70;;;;;;222646;1257;22508;-45
2023/06/12 02:25:40;;;;;;;1.50;1.40;;;25.00;54.90;;;;;;222341;1267;22650;-46
2023/06/12 02:30:44;;;;;;;1.60;1.50;;;25.00;54.90;;;;;;222635;1260;24233;-47
2023/06/12 02:35:49;;;;;;;2.60;1.40;;;24.90;54.90;;;;;;222483;1265;23130;-47
2023/06/12 02:40:54;;;;;;;1.20;1.10;;;24.90;55.00;;;;;;222054;1269;22514;-46
2023/06/12 02:45:58;;;;;;;1.70;1.60;;;24.90;55.00;;;;;;222728;1265;22507;-47
2023/06/12 02:51:06;;;;;;;1.80;1.70;;;24.90;55.10;;;;;;222726;1266;24187;-48
2023/06/12 02:56:10;;;;;;;1.60;1.50;;;24.80;55.10;;;;;;222624;1266;22720;-48
2023/06/12 03:01:16;;;;;;;1.50;1.40;;;24.90;55.10;;;;;;222669;1266;22659;-46
2023/06/12 03:06:26;;;;;;;1.90;1.40;;;24.90;55.10;;;;;;222641;1266;22511;-47
2023/06/12 03:11:30;;;;;;;1.60;1.50;;;24.90;55.30;;;;;;222438;1265;22515;-48
2023/06/12 03:16:36;;;;;;;1.70;1.60;;;24.90;55.50;;;;;;222580;1266;22586;-46
2023/06/12 03:21:40;;;;;;;1.90;1.80;;;24.90;55.50;;;;;;222522;1259;22633;-48
2023/06/12 03:26:44;;;;;;;1.80;1.60;;;24.80;55.10;;;;;;222494;1267;22629;-48
2023/06/12 03:31:49;;;;;;;1.80;1.70;;;24.90;55.80;;;;;;222887;1263;22512;-47
2023/06/12 03:36:53;;;;;;;1.80;1.70;;;24.80;55.10;;;;;;222248;1259;22606;-46
2023/06/12 03:42:00;;;;;;;1.90;1.80;;;24.80;55.10;;;;;;223662;1255;24298;-45
2023/06/12 03:47:14;;;;;;;2.30;1.60;;;24.80;55.10;;;;;;228341;1265;22492;-48
2023/06/12 03:52:19;;;;;;;1.80;1.70;;;24.90;54.90;;;;;;226902;1267;22498;-46
2023/06/12 03:57:24;;;;;;;1.40;1.30;;;24.90;55.10;;;;;;222171;1265;22917;-47
2023/06/12 04:02:28;;;;;;;1.60;1.50;;;24.90;54.70;;;;;;222881;1263;24311;-47
2023/06/12 04:07:32;;;;;;;1.30;1.30;;;24.90;55.10;;;;;;222485;1265;25134;-47
2023/06/12 04:12:37;;;;;;;1.60;1.50;;;24.80;55.30;;;;;;222471;1266;22598;-50
2023/06/12 04:17:42;;;;;;;1.70;1.60;;;24.70;55.40;;;;;;222572;1267;24187;-48
2023/06/12 04:22:49;;;;;;;2.50;1.30;;;24.70;55.40;;;;;;222522;1264;25358;-55
2023/06/12 04:27:53;;;;;;;1.30;1.20;;;24.70;55.40;;;;;;222274;1267;22511;-54
2023/06/12 04:32:58;;;;;;;1.80;1.70;;;24.70;55.70;;;;;;222428;1255;24331;-55
2023/06/12 04:38:05;;;;;;;2.10;1.40;;;24.70;55.40;;;;;;222636;1267;24270;-54
2023/06/12 04:43:09;;;;;;;2.00;1.40;;;24.80;55.40;;;;;;222498;1265;22646;-55
2023/06/12 04:48:14;;;;;;;1.50;1.30;;;24.80;55.30;;;;;;222620;1256;23403;-47
2023/06/12 04:53:19;;;;;;;2.70;1.60;;;24.70;55.40;;;;;;222489;1267;22527;-47
2023/06/12 04:58:23;;;;;;;1.60;1.50;;;24.80;55.30;;;;;;222746;1266;24369;-46
2023/06/12 05:03:28;;;;;;;8.50;1.80;;;24.70;55.20;;;;;;222282;1255;25236;-47
2023/06/12 05:08:33;;;;;;;1.80;1.70;;;24.80;55.40;;;;;;222373;1267;22531;-45
2023/06/12 05:13:37;;;;;;;2.20;1.60;;;24.70;55.30;;;;;;222353;1267;25185;-47
2023/06/12 05:18:43;;;;;;;1.60;1.40;;;24.80;55.70;;;;;;222035;1269;22512;-47
2023/06/12 05:23:50;;;;;;;1.80;1.50;;;24.80;55.70;;;;;;222300;1269;24222;-48
2023/06/12 05:28:54;;;;;;;1.60;1.50;;;24.80;55.30;;;;;;222184;1268;22515;-48
2023/06/12 05:33:58;;;;;;;9.20;2.20;;;24.70;55.70;;;;;;222380;1255;22531;-48
2023/06/12 05:39:06;;;;;;;12.70;2.30;;;24.80;55.80;;;;;;221969;1266;24310;-49
2023/06/12 05:44:17;;;;;;;7.00;1.60;;;24.90;55.60;;;;;;222017;1262;24317;-51
2023/06/12 05:49:22;;;;;;;2.60;1.60;;;25.00;55.40;;;;;;222451;1262;24203;-46
2023/06/12 05:54:26;;;;;;;6.80;2.00;;;25.00;56.30;;;;;;222340;1263;25445;-46
2023/06/12 05:59:35;;;;;;;2.70;2.10;;;25.00;57.00;;;;;;222195;1264;22514;-48
2023/06/12 06:04:42;;;;;;;6.40;2.60;;;25.10;58.60;;;;;;222389;1256;22633;-45
2023/06/12 06:09:46;;;;;;;7.30;2.60;;;25.10;58.70;;;;;;221984;1255;24189;-50
2023/06/12 06:14:51;;;;;;;10.90;2.50;;;25.00;59.00;;;;;;222327;1264;24256;-48
2023/06/12 06:19:55;;;;;;;10.90;2.80;;;25.10;59.80;;;;;;221957;1266;22656;-50
2023/06/12 06:24:59;;;;;;;7.30;2.50;;;25.20;59.20;;;;;;222237;1267;25386;-50
2023/06/12 06:30:05;;;;;;;6.50;2.60;;;25.10;58.90;;;;;;222230;1264;22568;-48
2023/06/12 06:35:12;;;;;;;9.70;2.80;;;25.20;58.80;;;;;;222476;1254;24289;-52
2023/06/12 06:40:16;;;;;;;9.50;2.70;;;25.20;58.50;;;;;;222444;1264;22524;-50
2023/06/12 06:45:21;;;;;;;8.10;2.30;;;25.30;58.60;;;;;;222299;1262;22640;-48
2023/06/12 06:50:26;;;;;;;19.90;2.80;;;25.20;58.60;;;;;;221622;1267;26528;-51
2023/06/12 06:55:32;;;;;;;9.50;3.30;;;25.30;58.20;;;;;;222508;1254;24378;-47
2023/06/12 07:00:39;;;;;;;10.80;2.80;;;25.20;58.10;;;;;;222367;1257;22514;-46
2023/06/12 07:05:43;;;;;;;5.80;2.90;;;25.40;58.00;;;;;;222352;1263;22557;-52
2023/06/12 07:10:47;;;;;;;10.30;3.00;;;25.40;57.80;;;;;;222506;1260;22505;-50
2023/06/12 07:15:57;;;;;;;9.70;2.20;;;25.40;57.30;;;;;;225230;1257;22544;-48
2023/06/12 07:21:07;;;;;;;7.00;2.80;;;25.40;56.90;;;;;;230086;1261;23235;-47
2023/06/12 07:26:13;;;;;;;7.40;2.90;;;25.50;56.30;;;;;;230430;1267;22325;-49
2023/06/12 07:31:21;;;;;;;5.40;2.90;;;25.70;55.40;;;;;;225279;1263;22717;-47
2023/06/12 07:36:25;;;;;;;3.70;2.50;;;25.70;55.40;;;;;;222680;1264;22591;-50
2023/06/12 07:41:30;;;;;;;4.70;2.90;;;25.60;54.60;;;;;;222555;1255;24193;-48
2023/06/12 07:46:34;;;;;;;4.90;2.50;;;25.40;54.50;;;;;;222407;1264;22529;-51
2023/06/12 07:51:39;;;;;;;3.70;2.60;;;25.40;53.90;;;;;;222726;1261;22622;-51
2023/06/12 07:56:44;;;;;;;3.80;2.50;;;25.40;53.60;;;;;;222993;1263;25367;-47
2023/06/12 08:01:49;;;;;;;6.20;2.40;;;25.40;53.80;;;;;;222469;1267;25373;-51
2023/06/12 08:06:56;;;;;;;7.10;3.00;;;25.40;54.90;;;;;;222595;1266;25486;-51
2023/06/12 08:12:04;;;;;;;3.00;2.60;;;25.30;54.50;;;;;;222402;1257;24279;-50
2023/06/12 08:17:11;;;;;;;6.00;2.30;;;25.40;54.20;;;;;;222424;1264;24739;-51
2023/06/12 08:22:16;;;;;;;4.60;2.50;;;25.40;54.00;;;;;;222360;1258;23922;-47
2023/06/12 08:27:21;;;;;;;3.20;2.30;;;25.50;53.90;;;;;;222280;1267;24285;-53
2023/06/12 08:32:26;;;;;;;5.50;2.60;;;25.50;53.70;;;;;;222352;1266;24263;-51
2023/06/12 08:37:31;;;;;;;4.60;2.50;;;25.40;53.60;;;;;;222463;1260;25313;-49
2023/06/12 08:42:37;;;;;;;4.20;2.50;;;25.40;53.20;;;;;;222471;1260;25455;-51
2023/06/12 08:47:46;;;;;;;2.90;2.50;;;25.40;51.10;;;;;;222685;1255;25255;-49
2023/06/12 08:52:52;;;;;;;2.70;2.00;;;25.40;50.90;;;;;;222714;1248;24097;-51
2023/06/12 08:57:58;;;;;;;4.20;2.60;;;25.40;52.40;;;;;;222564;1260;22555;-51
2023/06/12 09:03:06;;;;;;;2.90;2.40;;;25.50;50.30;;;;;;222555;1263;22656;-49
2023/06/12 09:08:10;;;;;;;2.60;2.40;;;25.50;51.00;;;;;;222478;1257;24640;-49
2023/06/12 09:13:14;;;;;;;2.20;2.00;;;25.50;49.60;;;;;;222543;1266;22518;-49
2023/06/12 09:18:20;;;;;;;2.90;2.30;;;25.50;50.90;;;;;;222339;1252;22573;-47
2023/06/12 09:23:25;;;;;;;3.00;2.50;;;25.50;51.70;;;;;;222535;1254;22505;-50
2023/06/12 09:28:36;;;;;;;2.80;2.50;;;25.50;51.60;;;;;;222612;1263;22521;-48
2023/06/12 09:33:44;;;;;;;3.10;2.50;;;25.60;50.50;;;;;;222461;1260;24193;-51
2023/06/12 09:38:51;;;;;;;3.60;2.30;;;25.70;49.80;;;;;;222589;1263;24169;-49
2023/06/12 09:44:04;;;;;;;2.70;2.50;;;25.70;50.30;;;;;;222343;1261;22543;-51
2023/06/12 09:49:10;;;;;;;3.20;2.30;;;25.70;49.50;;;;;;222514;1266;22507;-51
2023/06/12 09:54:32;;;;;;;2.80;2.30;;;25.70;50.20;;;;;;222406;1253;22522;-48
2023/06/12 09:59:38;;;;;;;2.40;2.20;;;25.60;50.90;;;;;;222448;1260;22542;-46
2023/06/12 10:04:47;;;;;;;2.70;2.20;;;25.60;51.40;;;;;;222725;1263;22531;-47
2023/06/12 10:09:51;;;;;;;2.10;1.90;;;25.60;51.00;;;;;;222777;1253;24117;-48
2023/06/12 10:14:57;;;;;;;2.40;1.90;;;25.60;50.90;;;;;;222426;1256;22508;-49
2023/06/12 10:20:03;;;;;;;4.60;2.20;;;25.60;50.80;;;;;;222427;1252;22530;-50
2023/06/12 10:25:09;;;;;;;2.90;2.30;;;25.70;50.20;;;;;;222432;1268;25309;-48
2023/06/12 10:30:16;;;;;;;3.00;2.20;;;25.70;50.40;;;;;;222515;1264;24291;-51
2023/06/12 10:35:31;;;;;;;2.80;2.60;;;25.70;50.00;;;;;;222660;1262;22518;-49
2023/06/12 10:40:38;;;;;;;2.20;2.00;;;25.80;49.10;;;;;;222827;1265;25395;-52
2023/06/12 10:45:58;;;;;;;2.70;2.50;;;25.80;48.20;;;;;;222398;1254;22515;-50
2023/06/12 10:51:03;;;;;;;2.80;2.40;;;25.80;48.00;;;;;;222471;1260;25302;-49
2023/06/12 10:56:07;;;;;;;3.30;2.30;;;25.80;49.20;;;;;;222317;1267;23914;-48
2023/06/12 11:01:15;;;;;;;3.50;2.10;;;25.70;48.90;;;;;;222073;1258;22491;-52
2023/06/12 11:06:24;;;;;;;3.10;2.60;;;25.70;48.30;;;;;;222359;1253;22669;-48
2023/06/12 11:11:30;;;;;;;4.00;2.60;;;25.70;48.00;;;;;;222421;1254;22621;-48
2023/06/12 11:16:40;;;;;;;2.70;2.30;;;25.70;47.20;;;;;;222291;1253;25357;-50
2023/06/12 11:21:44;;;;;;;5.50;2.40;;;25.80;49.20;;;;;;222640;1261;22668;-49
2023/06/12 11:26:50;;;;;;;2.50;2.30;;;25.90;50.80;;;;;;222206;1254;24183;-49
2023/06/12 11:32:04;;;;;;;3.40;2.50;;;26.00;49.50;;;;;;222552;1253;23133;-52
2023/06/12 11:37:19;;;;;;;6.10;2.60;;;25.90;48.50;;;;;;220858;1252;26293;-50
2023/06/12 11:42:23;;;;;;;4.10;2.70;;;25.90;48.30;;;;;;221181;1265;23918;-58
2023/06/12 11:47:29;;;;;;;3.30;2.60;;;26.00;48.40;;;;;;220840;1262;25564;-50
2023/06/12 11:52:39;;;;;;;2.50;2.30;;;26.10;48.60;;;;;;220860;1256;22570;-57
2023/06/12 11:57:50;;;;;;;2.70;2.50;;;26.20;48.10;;;;;;222312;1260;23516;-53
2023/06/12 12:03:01;;;;;;;5.00;2.80;;;26.20;48.30;;;;;;222058;1249;25538;-52
2023/06/12 12:08:08;;;;;;;3.10;2.40;;;26.20;48.50;;;;;;222253;1256;22519;-51
2023/06/12 12:13:13;;;;;;;4.50;2.50;;;26.20;49.00;;;;;;221803;1257;24197;-56
2023/06/12 12:18:17;;;;;;;5.00;2.10;;;26.10;47.20;;;;;;221760;1269;22508;-52
2023/06/12 12:23:24;;;;;;;3.10;2.80;;;26.00;48.10;;;;;;222112;1255;25171;-51
2023/06/12 12:28:28;;;;;;;3.00;2.50;;;26.10;47.60;;;;;;222209;1255;22512;-53
2023/06/12 12:33:32;;;;;;;4.50;2.30;;;26.10;47.90;;;;;;221974;1269;23147;-50
2023/06/12 12:38:37;;;;;;;7.80;2.70;;;26.20;49.40;;;;;;222181;1263;25264;-51
2023/06/12 12:43:41;;;;;;;2.50;2.30;;;26.10;49.80;;;;;;221630;1262;24187;-53
2023/06/12 12:48:45;;;;;;;2.60;2.20;;;26.10;49.70;;;;;;221827;1248;22517;-54
2023/06/12 12:53:50;;;;;;;4.90;2.40;;;26.30;49.10;;;;;;222172;1262;26052;-54
2023/06/12 12:58:56;;;;;;;3.10;2.80;;;26.30;48.50;;;;;;221923;1253;25473;-53
2023/06/12 13:04:00;;;;;;;5.10;2.30;;;26.30;47.70;;;;;;222038;1264;25321;-53
2023/06/12 13:09:05;;;;;;;2.90;2.40;;;26.30;48.50;;;;;;222045;1255;22510;-54
2023/06/12 13:14:09;;;;;;;3.60;2.30;;;26.30;48.30;;;;;;221746;1257;24322;-51
2023/06/12 13:19:13;;;;;;;2.80;2.60;;;26.20;48.20;;;;;;221682;1258;24690;-53
2023/06/12 13:24:18;;;;;;;3.10;2.20;;;26.30;48.10;;;;;;221982;1247;24330;-55
2023/06/12 13:29:23;;;;;;;2.90;2.30;;;26.20;47.80;;;;;;222601;1257;24322;-58
2023/06/12 13:34:27;;;;;;;3.20;2.30;;;26.30;47.90;;;;;;222209;1266;22527;-51
2023/06/12 13:39:32;;;;;;;2.30;2.10;;;26.30;48.00;;;;;;222578;1263;26675;-51
2023/06/12 13:44:36;;;;;;;4.70;2.30;;;26.20;48.20;;;;;;222376;1263;25242;-55
2023/06/12 13:49:40;;;;;;;2.90;2.20;;;26.30;49.50;;;;;;222507;1256;25553;-56
2023/06/12 13:54:45;;;;;;;3.70;2.80;;;26.30;50.50;;;;;;222523;1256;22518;-58
2023/06/12 13:59:49;;;;;;;3.10;2.70;;;26.20;51.50;;;;;;222334;1260;25470;-60
2023/06/12 14:04:53;;;;;;;2.60;2.40;;;26.20;50.10;;;;;;222427;1262;24264;-59
2023/06/12 14:09:58;;;;;;;5.30;2.10;;;26.10;49.60;;;;;;221939;1255;22560;-60
2023/06/12 14:15:04;;;;;;;4.90;2.10;;;26.20;50.40;;;;;;221669;1265;709678;-59
2023/06/12 14:20:11;;;;;;;2.70;2.50;;;26.20;51.70;;;;;;222393;1262;25395;-60
2023/06/12 14:25:16;;;;;;;2.40;2.10;;;26.10;51.10;;;;;;222431;1264;22517;-58
2023/06/12 14:30:21;;;;;;;2.50;1.90;;;26.10;51.50;;;;;;222420;1262;22499;-55
2023/06/12 14:35:25;;;;;;;2.10;2.00;;;26.10;52.00;;;;;;222206;1257;22500;-54
2023/06/12 14:40:30;;;;;;;3.40;2.00;;;26.10;51.10;;;;;;222508;1262;25484;-53
2023/06/12 14:45:34;;;;;;;2.20;2.10;;;26.20;51.40;;;;;;222283;1260;24331;-58
2023/06/12 14:50:39;;;;;;;2.30;2.10;;;26.20;52.80;;;;;;222502;1262;22524;-54
2023/06/12 14:55:44;;;;;;;3.20;2.00;;;26.00;52.50;;;;;;222206;1268;22507;-55
2023/06/12 15:00:48;;;;;;;3.20;1.80;;;26.00;53.80;;;;;;222563;1261;22565;-59
2023/06/12 15:05:52;;;;;;;2.30;1.90;;;26.00;53.40;;;;;;222758;1257;22507;-56
2023/06/12 15:10:57;;;;;;;2.40;2.20;;;26.00;51.90;;;;;;222593;1267;25462;-53
2023/06/12 15:16:01;;;;;;;3.70;2.10;;;26.00;50.00;;;;;;222468;1261;22776;-54
2023/06/12 15:21:05;;;;;;;4.60;2.40;;;26.10;49.50;;;;;;222677;1252;24884;-57
2023/06/12 15:26:10;;;;;;;6.70;2.30;;;26.10;50.60;;;;;;222456;1246;25314;-58
2023/06/12 15:31:14;;;;;;;6.60;5.40;;;26.20;53.20;;;;;;222721;1260;23852;-58
2023/06/12 15:36:19;;;;;;;7.10;3.80;;;26.20;52.10;;;;;;222859;1261;24066;-50
2023/06/12 15:41:23;;;;;;;17.20;4.60;;;26.30;52.30;;;;;;222714;1262;24331;-51
2023/06/12 15:46:28;;;;;;;5.40;3.90;;;26.40;51.30;;;;;;222371;1262;22536;-53
2023/06/12 15:51:32;;;;;;;11.70;4.10;;;26.50;50.30;;;;;;222420;1253;22589;-46
2023/06/12 15:56:36;;;;;;;6.70;3.30;;;26.60;50.60;;;;;;222913;1253;25474;-47
2023/06/12 16:01:41;;;;;;;4.20;3.20;;;26.60;49.50;;;;;;222654;1262;23618;-49
2023/06/12 16:06:47;;;;;;;4.90;2.90;;;26.50;48.50;;;;;;222762;1262;24230;-45
2023/06/12 16:11:53;;;;;;;6.90;3.30;;;26.40;46.70;;;;;;222691;1261;24135;-44
2023/06/12 16:17:00;;;;;;;5.80;2.70;;;26.50;46.00;;;;;;222747;1250;25282;-46
2023/06/12 16:22:05;;;;;;;5.90;2.70;;;26.50;45.70;;;;;;222854;1264;24160;-52
2023/06/12 16:27:12;;;;;;;10.90;2.70;;;26.60;45.50;;;;;;223788;1253;22623;-54
2023/06/12 16:32:17;;;;;;;6.70;2.60;;;26.40;43.90;;;;;;226052;1268;22515;-55
2023/06/12 16:37:22;;;;;;;3.70;2.60;;;26.00;41.40;;;;;;222684;1259;22680;-55
2023/06/12 16:42:26;;;;;;;5.20;2.50;;;26.00;40.00;;;;;;222354;1253;24340;-56
2023/06/12 16:47:30;;;;;;;5.10;2.50;;;26.10;42.50;;;;;;222662;1256;24203;-53
2023/06/12 16:52:36;;;;;;;5.90;2.30;;;25.90;41.00;;;;;;222390;1267;25744;-46
2023/06/12 16:57:40;;;;;;;5.00;2.40;;;25.70;39.70;;;;;;222231;1246;24205;-45
2023/06/12 17:02:48;;;;;;;7.60;2.50;;;26.00;39.30;;;;;;222061;1260;22773;-54
2023/06/12 17:07:54;;;;;;;5.90;1.90;;;25.80;38.50;;;;;;222383;1246;24215;-55
2023/06/12 17:13:00;;;;;;;5.50;2.00;;;25.80;38.70;;;;;;222284;1262;22514;-50
2023/06/12 17:18:06;;;;;;;4.00;2.40;;;25.80;39.60;;;;;;222207;1265;22619;-49
2023/06/12 17:23:12;;;;;;;3.30;1.70;;;25.70;37.30;;;;;;222324;1253;24301;-47
2023/06/12 17:28:20;;;;;;;2.30;2.10;;;25.70;38.90;;;;;;222257;1255;22778;-51
2023/06/12 17:33:28;;;;;;;4.70;2.10;;;25.80;38.80;;;;;;222585;1263;24249;-55
2023/06/12 17:38:33;;;;;;;3.00;2.00;;;25.70;38.50;;;;;;222422;1266;25463;-47
2023/06/12 17:43:39;;;;;;;2.90;2.00;;;25.60;38.30;;;;;;222085;1263;22528;-50
2023/06/12 17:48:45;;;;;;;7.20;2.10;;;25.70;37.40;;;;;;222482;1263;22513;-51
2023/06/12 17:53:52;;;;;;;2.90;1.90;;;25.60;37.80;;;;;;222893;1265;22564;-50
2023/06/12 17:58:57;;;;;;;6.30;3.10;;;25.70;38.10;;;;;;222570;1253;25330;-52
2023/06/12 18:04:01;;;;;;;3.00;2.10;;;25.60;37.70;;;;;;222408;1268;22525;-50
2023/06/12 18:09:09;;;;;;;4.00;2.20;;;25.60;37.80;;;;;;222366;1256;24190;-50
2023/06/12 18:14:17;;;;;;;10.20;2.20;;;25.60;36.70;;;;;;222298;1253;25362;-51
2023/06/12 18:19:21;;;;;;;5.70;2.40;;;25.60;37.00;;;;;;222366;1253;22529;-51
2023/06/12 18:24:26;;;;;;;4.20;2.20;;;25.50;37.20;;;;;;222533;1261;22537;-49
2023/06/12 18:29:30;;;;;;;6.50;2.40;;;25.30;37.80;;;;;;222471;1262;22648;-47
2023/06/12 18:34:35;;;;;;;7.60;2.30;;;25.30;38.00;;;;;;222458;1247;23019;-52
2023/06/12 18:39:40;;;;;;;3.60;2.20;;;25.20;37.90;;;;;;222386;1262;22526;-49
2023/06/12 18:44:47;;;;;;;9.30;2.40;;;25.40;37.50;;;;;;222448;1261;24328;-50
2023/06/12 18:49:51;;;;;;;2.90;2.30;;;25.50;37.40;;;;;;222535;1257;25437;-46
2023/06/12 18:54:55;;;;;;;3.40;2.30;;;25.60;37.50;;;;;;222171;1267;23123;-47
2023/06/12 18:59:59;;;;;;;7.50;2.20;;;25.50;37.60;;;;;;222352;1264;22511;-46
2023/06/12 19:05:04;;;;;;;4.60;2.40;;;25.40;37.80;;;;;;222369;1256;22514;-49
2023/06/12 19:10:09;;;;;;;3.30;2.20;;;25.40;38.30;;;;;;222414;1258;24773;-48
2023/06/12 19:15:13;;;;;;;4.10;2.40;;;25.30;39.60;;;;;;222156;1263;25395;-47
2023/06/12 19:20:18;;;;;;;7.30;2.50;;;25.20;38.60;;;;;;222462;1253;22517;-48
2023/06/12 19:25:22;;;;;;;8.30;2.40;;;25.10;38.20;;;;;;222414;1256;24164;-47
2023/06/12 19:30:27;;;;;;;7.80;2.70;;;25.10;38.60;;;;;;222210;1253;25204;-50
2023/06/12 19:35:31;;;;;;;5.60;2.70;;;25.10;39.50;;;;;;222282;1253;23956;-49
2023/06/12 19:40:35;;;;;;;5.80;2.80;;;25.10;39.20;;;;;;222544;1253;22629;-48
2023/06/12 19:45:40;;;;;;;4.80;2.80;;;25.10;38.40;;;;;;222350;1262;23146;-48
2023/06/12 19:50:46;;;;;;;7.50;3.00;;;25.20;39.00;;;;;;222185;1253;24254;-46
2023/06/12 19:55:50;;;;;;;5.30;2.70;;;25.20;38.70;;;;;;222551;1262;22535;-48
2023/06/12 20:00:56;;;;;;;3.00;2.70;;;25.20;39.10;;;;;;222418;1257;24198;-49
2023/06/12 20:06:00;;;;;;;4.80;2.70;;;25.20;39.30;;;;;;222127;1253;24194;-48
2023/06/12 20:11:06;;;;;;;8.90;2.60;;;25.20;39.50;;;;;;222599;1257;22508;-51
2023/06/12 20:16:11;;;;;;;7.90;3.00;;;25.20;40.40;;;;;;222745;1258;23920;-47
2023/06/12 20:21:16;;;;;;;5.20;2.50;;;25.30;41.40;;;;;;222390;1246;22817;-54
2023/06/12 20:26:20;;;;;;;7.90;2.90;;;25.40;41.50;;;;;;222346;1265;25252;-43
2023/06/12 20:31:25;;;;;;;18.30;6.00;;;25.40;41.90;;;;;;222351;1268;22574;-46
2023/06/12 20:36:32;;;;;;;11.00;2.90;;;25.40;42.80;;;;;;222336;1260;22508;-53
2023/06/12 20:41:37;;;;;;;6.60;3.30;;;25.50;42.50;;;;;;222390;1263;25278;-49
2023/06/12 20:46:41;;;;;;;9.90;2.50;;;25.50;42.60;;;;;;222425;1263;22514;-39
2023/06/12 20:51:45;;;;;;;3.90;2.50;;;25.40;42.60;;;;;;222315;1247;22704;-41
2023/06/12 20:56:50;;;;;;;5.60;2.80;;;25.50;42.90;;;;;;222499;1262;24189;-40
2023/06/12 21:01:54;;;;;;;8.60;4.10;;;25.50;43.50;;;;;;222651;1261;24388;-41
2023/06/12 21:07:00;;;;;;;7.10;3.60;;;25.50;43.60;;;;;;222252;1260;24648;-44
2023/06/12 21:12:05;;;;;;;6.70;3.90;;;25.70;43.50;;;;;;222574;1266;22537;-43
2023/06/12 21:17:10;;;;;;;8.30;3.80;;;25.70;44.00;;;;;;222867;1265;22555;-45
2023/06/12 21:22:35;;;;;;;16.30;4.60;;;25.60;44.60;;;;;;222242;1263;24194;-42
2023/06/12 21:27:38;;;;;;;18.90;5.50;;;25.60;44.70;;;;;;223243;1263;22921;-43
2023/06/12 21:32:42;;;;;;;15.80;5.30;;;25.80;44.70;;;;;;222280;1263;22592;-42
2023/06/12 21:37:47;;;;;;;12.80;4.90;;;25.80;45.80;;;;;;222242;1266;22511;-41
2023/06/12 21:42:51;;;;;;;13.10;5.00;;;25.80;47.70;;;;;;222277;1265;24201;-43
2023/06/12 21:47:56;;;;;;;15.00;5.40;;;25.80;48.70;;;;;;222781;1265;23936;-44
2023/06/12 21:53:00;;;;;;;14.70;5.30;;;25.70;49.30;;;;;;223066;1262;22534;-41
2023/06/12 21:58:04;;;;;;;15.80;5.30;;;25.70;49.40;;;;;;222425;1260;22529;-45
2023/06/12 22:03:09;;;;;;;14.90;5.30;;;25.70;49.70;;;;;;223035;1266;24163;-41
2023/06/12 22:08:13;;;;;;;13.60;5.90;;;25.80;50.10;;;;;;222548;1257;25619;-45
2023/06/12 22:13:18;;;;;;;23.90;8.10;;;25.80;50.60;;;;;;222676;1260;22512;-43
2023/06/12 22:18:22;;;;;;;17.80;7.50;;;25.90;52.70;;;;;;222313;1268;22514;-41
2023/06/12 22:23:27;;;;;;;15.40;6.50;;;26.00;53.50;;;;;;222436;1267;22509;-44
2023/06/12 22:28:31;;;;;;;15.10;6.60;;;25.90;52.90;;;;;;222205;1256;22522;-43
2023/06/12 22:33:35;;;;;;;18.80;6.90;;;26.00;53.10;;;;;;222667;1258;22536;-44
2023/06/12 22:38:39;;;;;;;13.50;6.50;;;26.00;52.30;;;;;;222457;1247;25316;-50
2023/06/12 22:43:46;;;;;;;18.90;6.70;;;26.00;52.20;;;;;;222436;1268;25403;-48
2023/06/12 22:48:50;;;;;;;17.20;6.30;;;26.00;52.00;;;;;;222286;1269;25375;-47
2023/06/12 22:53:54;;;;;;;13.80;6.10;;;26.00;51.80;;;;;;222385;1257;25246;-47
2023/06/12 22:59:00;;;;;;;13.00;5.50;;;26.00;51.80;;;;;;222606;1255;22620;-52
2023/06/12 23:04:04;;;;;;;11.40;5.40;;;26.00;51.70;;;;;;222521;1266;22519;-50
2023/06/12 23:09:08;;;;;;;12.30;5.30;;;26.00;51.60;;;;;;222737;1253;22531;-49
2023/06/12 23:14:12;;;;;;;13.70;5.20;;;26.00;52.10;;;;;;222466;1259;22651;-47
2023/06/12 23:19:19;;;;;;;11.30;4.90;;;26.00;52.10;;;;;;222430;1267;22556;-50
2023/06/12 23:24:25;;;;;;;11.30;5.60;;;26.00;52.10;;;;;;224261;1257;25231;-50
2023/06/12 23:29:30;;;;;;;12.20;5.40;;;26.10;52.20;;;;;;222469;1262;25635;-48
2023/06/12 23:34:34;;;;;;;9.40;4.80;;;26.10;51.60;;;;;;222270;1268;22522;-48
2023/06/12 23:39:40;;;;;;;10.30;4.80;;;26.00;51.70;;;;;;222961;1256;25269;-52
2023/06/12 23:44:44;;;;;;;10.40;4.40;;;25.90;52.00;;;;;;222554;1264;24242;-47
2023/06/12 23:49:49;;;;;;;9.80;4.70;;;25.70;52.10;;;;;;222865;1267;25214;-47
2023/06/12 23:54:53;;;;;;;8.00;4.50;;;25.70;52.50;;;;;;222511;1267;22520;-46
2023/06/12 23:59:59;;;;;;;8.60;4.50;;;25.60;52.80;;;;;;222409;1267;24184;-48
